La Vernia, Texas
Current Conditions -  °F | °C
As of 9:58 PM on Wednesday 26 Nov 2014 (Local Time) from KRND Reporting Station
Clear Clear  
Wind Chill: 51°   Ceiling: Unl
Heat Index: 51°   Visibility: 10mi
Dew Point: 38°   Wind: 7mph
Humidity: 60%   Direction: 360°N
Pressure: 30.3"   Gusts: NA
Location:  29.36°N, 98.12°W
Report Text: KRND 270358Z AUTO 36006KT 10SM CLR 11/03 A3030 RMK AO2 SLP259 T01070033
Loading
Personal Weather Stations






























Interactive Weather Map New forecast layout! Learn more

10-Day Weather Forecast

Advertisements
Track Severe Weather on mobile